createdAt,value
2023-01-09T00:00:39.607Z,6.4
2023-01-09T00:01:55.908Z,6.3
2023-01-09T00:03:12.201Z,6.3
2023-01-09T00:04:28.510Z,6.3
2023-01-09T00:05:44.805Z,6.4
2023-01-09T00:07:01.096Z,6.3
2023-01-09T00:08:17.373Z,6.3
2023-01-09T00:09:33.677Z,6.3
2023-01-09T00:10:49.972Z,6.3
2023-01-09T00:12:06.255Z,6.3
2023-01-09T00:13:21.567Z,6.2
2023-01-09T00:14:37.881Z,6.3
2023-01-09T00:15:54.174Z,6.3
2023-01-09T00:17:10.448Z,6.3
2023-01-09T00:18:26.745Z,6.3
2023-01-09T00:19:43.058Z,6.3
2023-01-09T00:20:59.338Z,6.3
2023-01-09T00:22:15.640Z,6.3
2023-01-09T00:23:31.953Z,6.3
2023-01-09T00:24:48.221Z,6.3
2023-01-09T00:26:04.508Z,6.3
2023-01-09T00:27:20.813Z,6.3
2023-01-09T00:28:37.111Z,6.4
2023-01-09T00:29:52.429Z,6.4
2023-01-09T00:31:08.697Z,6.4
2023-01-09T00:32:24.993Z,6.4
2023-01-09T00:33:41.304Z,6.3
2023-01-09T00:34:57.585Z,6.3
2023-01-09T00:36:13.872Z,6.4
2023-01-09T00:37:30.173Z,6.3
2023-01-09T00:38:46.471Z,6.3
2023-01-09T00:40:02.756Z,6.3
2023-01-09T00:41:19.050Z,6.3
2023-01-09T00:42:35.350Z,6.3
2023-01-09T00:43:51.656Z,6.3
2023-01-09T00:45:07.942Z,6.2
2023-01-09T00:46:23.266Z,6.2
2023-01-09T00:47:39.000Z,6.2
2023-01-09T00:48:55.855Z,6.2
2023-01-09T00:50:12.138Z,6.1
2023-01-09T00:51:28.420Z,6.1
2023-01-09T00:52:44.723Z,6.1
2023-01-09T00:54:01.034Z,6.1
2023-01-09T00:55:17.323Z,6.1
2023-01-09T00:56:33.603Z,6
2023-01-09T00:57:49.909Z,6
2023-01-09T00:59:06.184Z,6.1
2023-01-09T01:00:22.512Z,6.1
2023-01-09T01:01:38.782Z,6
2023-01-09T01:02:54.102Z,6.1
2023-01-09T01:04:10.400Z,6.1
2023-01-09T01:05:26.683Z,6.1
2023-01-09T01:06:42.965Z,6.1
2023-01-09T01:07:59.265Z,6.1
2023-01-09T01:09:15.553Z,6.1
2023-01-09T01:10:31.859Z,6.1
2023-01-09T01:11:48.163Z,6.1
2023-01-09T01:13:04.438Z,6.1
2023-01-09T01:14:20.742Z,6.1
2023-01-09T01:15:37.031Z,6.1
2023-01-09T01:16:53.333Z,6.2
2023-01-09T01:18:09.615Z,6.2
2023-01-09T01:19:24.922Z,6.2
2023-01-09T01:20:41.247Z,6.2
2023-01-09T01:21:57.513Z,6.3
2023-01-09T01:23:13.817Z,6.2
2023-01-09T01:24:30.134Z,6.2
2023-01-09T01:25:46.398Z,6.2
2023-01-09T01:27:02.694Z,6.2
2023-01-09T01:28:19.013Z,6.2
2023-01-09T01:29:35.292Z,6.2
2023-01-09T01:30:51.577Z,6.2
2023-01-09T01:32:07.865Z,6.3
2023-01-09T01:33:24.161Z,6.3
2023-01-09T01:34:40.465Z,6.3
2023-01-09T01:35:55.768Z,6.3
2023-01-09T01:37:12.066Z,6.3
2023-01-09T01:38:28.368Z,6.3
2023-01-09T01:39:44.671Z,6.3
2023-01-09T01:41:00.952Z,6.3
2023-01-09T01:42:17.263Z,6.3
2023-01-09T01:43:33.552Z,6.4
2023-01-09T01:44:49.851Z,6.4
2023-01-09T01:46:06.144Z,6.4
2023-01-09T01:47:22.433Z,6.4
2023-01-09T01:48:38.725Z,6.5
2023-01-09T01:49:55.005Z,6.5
2023-01-09T01:51:11.297Z,6.5
2023-01-09T01:52:26.607Z,6.5
2023-01-09T01:53:42.933Z,6.5
2023-01-09T01:54:59.198Z,6.5
2023-01-09T01:56:15.510Z,6.5
2023-01-09T01:57:31.786Z,6.5
2023-01-09T01:58:48.110Z,6.5
2023-01-09T02:00:04.403Z,6.5
2023-01-09T02:01:20.674Z,6.5
2023-01-09T02:02:36.961Z,6.5
2023-01-09T02:03:53.257Z,6.5
2023-01-09T02:05:09.561Z,6.5
2023-01-09T02:06:25.865Z,6.5
2023-01-09T02:07:42.146Z,6.6
2023-01-09T02:08:57.454Z,6.6
2023-01-09T02:10:13.766Z,6.6
2023-01-09T02:11:30.036Z,6.6
2023-01-09T02:12:46.366Z,6.6
2023-01-09T02:14:02.631Z,6.6
2023-01-09T02:15:18.922Z,6.6
2023-01-09T02:16:35.239Z,6.6
2023-01-09T02:17:51.528Z,6.6
2023-01-09T02:19:07.805Z,6.7
2023-01-09T02:20:24.128Z,6.7
2023-01-09T02:21:40.398Z,6.7
2023-01-09T02:22:56.710Z,6.7
2023-01-09T02:24:13.006Z,6.7
2023-01-09T02:25:28.291Z,6.7
2023-01-09T02:26:44.603Z,6.8
2023-01-09T02:28:00.887Z,6.8
2023-01-09T02:29:17.201Z,6.8
2023-01-09T02:30:33.468Z,6.8
2023-01-09T02:31:49.770Z,6.8
2023-01-09T02:33:06.077Z,6.9
2023-01-09T02:34:22.359Z,6.9
2023-01-09T02:35:38.668Z,6.9
2023-01-09T02:36:54.944Z,6.9
2023-01-09T02:38:11.234Z,7
2023-01-09T02:39:27.554Z,7
2023-01-09T02:40:43.843Z,7
2023-01-09T02:41:59.162Z,7
2023-01-09T02:43:15.425Z,7
2023-01-09T02:44:31.746Z,7.1
2023-01-09T02:45:48.046Z,7.1
2023-01-09T02:47:04.314Z,7.1
2023-01-09T02:48:20.631Z,7.2
2023-01-09T02:49:36.900Z,7.1
2023-01-09T02:50:53.217Z,7.2
2023-01-09T02:52:09.490Z,7.2
2023-01-09T02:53:25.804Z,7.2
2023-01-09T02:54:42.073Z,7.2
2023-01-09T02:55:58.372Z,7.2
2023-01-09T02:57:14.663Z,7.2
2023-01-09T02:58:29.997Z,7.2
2023-01-09T02:59:46.268Z,7.1
2023-01-09T03:01:02.560Z,7.2
2023-01-09T03:02:18.854Z,7.2
2023-01-09T03:03:35.150Z,7.2
2023-01-09T03:04:51.448Z,7.2
2023-01-09T03:06:07.755Z,7.2
2023-01-09T03:07:24.070Z,7.2
2023-01-09T03:08:40.348Z,7.2
2023-01-09T03:09:56.617Z,7.2
2023-01-09T03:11:12.942Z,7.2
2023-01-09T03:12:29.218Z,7.2
2023-01-09T03:13:45.510Z,7.2
2023-01-09T03:15:00.817Z,7.2
2023-01-09T03:16:17.107Z,7.2
2023-01-09T03:17:33.406Z,7.2
2023-01-09T03:18:49.703Z,7.2
2023-01-09T03:20:05.988Z,7.2
2023-01-09T03:21:22.313Z,7.2
2023-01-09T03:22:37.599Z,7.2
2023-01-09T03:23:53.907Z,7.1
2023-01-09T03:25:10.211Z,7.1
2023-01-09T03:26:26.511Z,7.1
2023-01-09T03:27:42.790Z,7.2
2023-01-09T03:28:59.077Z,7.2
2023-01-09T03:30:15.395Z,7.1
2023-01-09T03:31:31.694Z,7.2
2023-01-09T03:32:47.960Z,7.2
2023-01-09T03:34:04.266Z,7.2
2023-01-09T03:35:20.553Z,7.2
2023-01-09T03:36:36.832Z,7.2
2023-01-09T03:37:53.128Z,7.3
2023-01-09T03:39:08.469Z,7.3
2023-01-09T03:40:24.745Z,7.2
2023-01-09T03:41:41.053Z,7.3
2023-01-09T03:42:57.327Z,7.2
2023-01-09T03:44:13.650Z,7.3
2023-01-09T03:45:29.914Z,7.3
2023-01-09T03:46:46.228Z,7.2
2023-01-09T03:48:02.497Z,7.3
2023-01-09T03:49:18.802Z,7.3
2023-01-09T03:50:35.084Z,7.3
2023-01-09T03:51:51.380Z,7.3
2023-01-09T03:53:07.695Z,7.3
2023-01-09T03:54:23.990Z,7.3
2023-01-09T03:55:39.294Z,7.3
2023-01-09T03:56:55.578Z,7.3
2023-01-09T03:58:11.876Z,7.3
2023-01-09T03:59:28.160Z,7.3
2023-01-09T04:00:44.456Z,7.2
2023-01-09T04:02:00.779Z,7.3
2023-01-09T04:03:17.049Z,7.2
2023-01-09T04:04:33.341Z,7.2
2023-01-09T04:05:49.640Z,7.2
2023-01-09T04:07:05.936Z,7.2
2023-01-09T04:08:22.217Z,7.2
2023-01-09T04:09:38.531Z,7.2
2023-01-09T04:10:54.823Z,7.2
2023-01-09T04:12:10.143Z,7.2
2023-01-09T04:13:26.420Z,7.2
2023-01-09T04:14:42.709Z,7.2
2023-01-09T04:15:59.016Z,7.2
2023-01-09T04:17:15.294Z,7.2
2023-01-09T04:18:31.587Z,7.2
2023-01-09T04:19:47.912Z,7.2
2023-01-09T04:21:04.186Z,7.2
2023-01-09T04:22:20.501Z,7.2
2023-01-09T04:23:36.794Z,7.2
2023-01-09T04:24:53.065Z,7.2
2023-01-09T04:26:09.377Z,7.2
2023-01-09T04:27:25.678Z,7.2
2023-01-09T04:28:40.961Z,7.2
2023-01-09T04:29:57.291Z,7.2
2023-01-09T04:31:13.546Z,7.2
2023-01-09T04:32:29.839Z,7.2
2023-01-09T04:33:46.160Z,7.2
2023-01-09T04:35:02.428Z,7.2
2023-01-09T04:36:18.737Z,7.1
2023-01-09T04:37:35.039Z,7.2
2023-01-09T04:38:51.336Z,7.2
2023-01-09T04:40:07.603Z,7.2
2023-01-09T04:41:23.903Z,7.2
2023-01-09T04:42:40.228Z,7.2
2023-01-09T04:43:56.489Z,7.2
2023-01-09T04:45:11.802Z,7.2
2023-01-09T04:46:28.096Z,7.2
2023-01-09T04:47:44.399Z,7.2
2023-01-09T04:49:00.704Z,7.2
2023-01-09T04:50:16.982Z,7.2
2023-01-09T04:52:49.587Z,7.2
2023-01-09T04:54:05.860Z,7.2
2023-01-09T04:55:22.166Z,7.2
2023-01-09T04:56:38.455Z,7.2
2023-01-09T04:57:54.763Z,7.2
2023-01-09T04:59:11.050Z,7.2
2023-01-09T05:00:27.352Z,7.1
2023-01-09T05:01:42.639Z,7.2
2023-01-09T05:02:58.935Z,7.1
2023-01-09T05:04:15.261Z,7.1
2023-01-09T05:05:31.544Z,7.2
2023-01-09T05:06:47.826Z,7.2
2023-01-09T05:08:04.143Z,7.1
2023-01-09T05:09:20.435Z,7.1
2023-01-09T05:10:36.702Z,7.2
2023-01-09T05:11:52.996Z,7.2
2023-01-09T05:13:09.299Z,7.2
2023-01-09T05:14:25.581Z,7.2
2023-01-09T05:15:41.898Z,7.2
2023-01-09T05:16:58.197Z,7.2
2023-01-09T05:18:13.476Z,7.2
2023-01-09T05:19:29.812Z,7.1
2023-01-09T05:20:46.075Z,7.2
2023-01-09T05:22:02.374Z,7.2
2023-01-09T05:23:18.658Z,7.2
2023-01-09T05:24:34.962Z,7.2
2023-01-09T05:25:51.284Z,7.2
2023-01-09T05:27:07.555Z,7.2
2023-01-09T05:28:23.831Z,7.2
2023-01-09T05:29:40.129Z,7.2
2023-01-09T05:30:56.438Z,7.2
2023-01-09T05:32:12.741Z,7.2
2023-01-09T05:33:29.011Z,7.2
2023-01-09T05:34:44.323Z,7.2
2023-01-09T05:36:00.635Z,7.2
2023-01-09T05:37:16.910Z,7.2
2023-01-09T05:38:33.225Z,7.2
2023-01-09T05:39:49.503Z,7.2
2023-01-09T05:41:05.827Z,7.2
2023-01-09T05:42:22.103Z,7.2
2023-01-09T05:43:38.391Z,7.1
2023-01-09T05:44:54.676Z,7.2
2023-01-09T05:46:10.976Z,7.2
2023-01-09T05:47:27.261Z,7.2
2023-01-09T05:48:43.564Z,7.2
2023-01-09T05:49:59.885Z,7.3
2023-01-09T05:51:15.164Z,7.3
2023-01-09T05:52:31.461Z,7.3
2023-01-09T05:53:47.750Z,7.3
2023-01-09T05:55:04.058Z,7.3
2023-01-09T05:56:20.347Z,7.4
2023-01-09T05:57:36.665Z,7.4
2023-01-09T05:58:52.926Z,7.4
2023-01-09T06:00:09.238Z,7.4
2023-01-09T06:01:25.529Z,7.4
2023-01-09T06:02:41.811Z,7.4
2023-01-09T06:03:58.112Z,7.4
2023-01-09T06:05:14.407Z,7.5
2023-01-09T06:06:30.722Z,7.5
2023-01-09T06:07:46.018Z,7.5
2023-01-09T06:09:02.330Z,7.5
2023-01-09T06:10:18.587Z,7.6
2023-01-09T06:11:34.908Z,7.6
2023-01-09T06:12:51.212Z,7.5
2023-01-09T06:14:07.480Z,7.6
2023-01-09T06:15:23.774Z,7.6
2023-01-09T06:16:40.084Z,7.6
2023-01-09T06:17:56.356Z,7.6
2023-01-09T06:19:12.677Z,7.6
2023-01-09T06:20:28.954Z,7.6
2023-01-09T06:21:45.248Z,7.6
2023-01-09T06:23:01.534Z,7.6
2023-01-09T06:24:16.852Z,7.6
2023-01-09T06:25:33.155Z,7.6
2023-01-09T06:26:49.446Z,7.6
2023-01-09T06:28:05.726Z,7.6
2023-01-09T06:29:22.044Z,7.6
2023-01-09T06:30:38.310Z,7.6
2023-01-09T06:31:54.615Z,7.6
2023-01-09T06:33:10.926Z,7.6
2023-01-09T06:34:27.214Z,7.6
2023-01-09T06:35:43.510Z,7.6
2023-01-09T06:36:59.781Z,7.6
2023-01-09T06:38:16.077Z,7.5
2023-01-09T06:39:32.371Z,7.6
2023-01-09T06:40:47.684Z,7.5
2023-01-09T06:42:03.945Z,7.5
2023-01-09T06:43:20.186Z,7.6
2023-01-09T06:44:36.439Z,7.5
2023-01-09T06:45:52.650Z,7.6
2023-01-09T06:47:08.897Z,7.6
2023-01-09T06:48:25.151Z,7.6
2023-01-09T06:49:41.399Z,7.6
2023-01-09T06:50:57.626Z,7.6
2023-01-09T06:52:13.866Z,7.6
2023-01-09T06:53:30.110Z,7.6
2023-01-09T06:54:46.353Z,7.6
2023-01-09T06:56:02.583Z,7.6
2023-01-09T06:57:17.849Z,7.6
2023-01-09T06:58:34.089Z,7.7
2023-01-09T06:59:50.322Z,7.6
2023-01-09T07:01:06.559Z,7.6
2023-01-09T07:02:22.813Z,7.6
2023-01-09T07:03:39.043Z,7.7
2023-01-09T07:04:55.293Z,7.7
2023-01-09T07:06:11.536Z,7.7
2023-01-09T07:07:27.770Z,7.7
2023-01-09T07:08:44.008Z,7.7
2023-01-09T07:10:00.245Z,7.7
2023-01-09T07:11:16.499Z,7.7
2023-01-09T07:12:32.724Z,7.7
2023-01-09T07:13:47.979Z,7.7
2023-01-09T07:15:04.258Z,7.7
2023-01-09T07:16:20.474Z,7.7
2023-01-09T07:17:36.702Z,7.7
2023-01-09T07:18:52.958Z,7.7
2023-01-09T07:20:09.196Z,7.7
2023-01-09T07:21:25.433Z,7.7
2023-01-09T07:22:41.660Z,7.7
2023-01-09T07:23:57.918Z,7.7
2023-01-09T07:25:14.142Z,7.8
2023-01-09T07:26:30.415Z,7.8
2023-01-09T07:27:46.627Z,7.8
2023-01-09T07:29:02.871Z,7.8
2023-01-09T07:30:18.146Z,7.8
2023-01-09T07:31:34.376Z,7.9
2023-01-09T07:32:50.598Z,7.9
2023-01-09T07:34:06.847Z,7.9
2023-01-09T07:35:23.110Z,7.9
2023-01-09T07:36:39.347Z,7.9
2023-01-09T07:37:54.615Z,7.9
2023-01-09T07:39:10.823Z,7.9
2023-01-09T07:40:27.074Z,7.9
2023-01-09T07:41:43.302Z,7.9
2023-01-09T07:42:59.541Z,7.9
2023-01-09T07:44:15.816Z,7.9
2023-01-09T07:45:32.035Z,7.9
2023-01-09T07:46:48.290Z,7.9
2023-01-09T07:48:04.541Z,7.9
2023-01-09T07:49:20.773Z,7.9
2023-01-09T07:50:36.986Z,7.9
2023-01-09T07:51:53.229Z,7.9
2023-01-09T07:53:09.464Z,8
2023-01-09T07:54:24.736Z,8
2023-01-09T07:55:40.991Z,8
2023-01-09T07:56:57.211Z,8
2023-01-09T07:58:13.447Z,8
2023-01-09T07:59:29.702Z,8
2023-01-09T08:00:45.921Z,8
2023-01-09T08:03:18.442Z,8.1
2023-01-09T08:04:34.649Z,8.1
2023-01-09T08:05:50.877Z,8.1
2023-01-09T08:07:07.143Z,8.1
2023-01-09T08:08:23.366Z,8.1
2023-01-09T08:09:39.613Z,8.1
2023-01-09T08:10:54.870Z,8.1
2023-01-09T08:12:11.095Z,8.1
2023-01-09T08:13:27.369Z,8.2
2023-01-09T08:14:43.614Z,8.2
2023-01-09T08:15:59.843Z,8.2
2023-01-09T08:17:16.056Z,8.2
2023-01-09T08:18:32.298Z,8.2
2023-01-09T08:19:48.538Z,8.2
2023-01-09T08:21:04.780Z,8.2
2023-01-09T08:22:21.032Z,8.2
2023-01-09T08:23:37.296Z,8.2
2023-01-09T08:24:53.498Z,8.2
2023-01-09T08:26:09.765Z,8.2
2023-01-09T08:27:25.007Z,8.2
2023-01-09T08:28:41.261Z,8.3
2023-01-09T08:29:57.478Z,8.3
2023-01-09T08:31:13.740Z,8.3
2023-01-09T08:32:29.987Z,8.3
2023-01-09T08:33:46.198Z,8.3
2023-01-09T08:35:02.448Z,8.4
2023-01-09T08:36:18.684Z,8.3
2023-01-09T08:37:34.942Z,8.4
2023-01-09T08:38:51.182Z,8.3
2023-01-09T08:40:07.427Z,8.4
2023-01-09T08:41:23.662Z,8.4
2023-01-09T08:42:39.905Z,8.4
2023-01-09T08:43:55.135Z,8.4
2023-01-09T08:45:11.378Z,8.4
2023-01-09T08:46:27.611Z,8.4
2023-01-09T08:47:43.851Z,8.4
2023-01-09T08:49:00.097Z,8.4
2023-01-09T08:50:16.340Z,8.4
2023-01-09T08:51:32.578Z,8.3
2023-01-09T08:52:48.840Z,8.3
2023-01-09T08:54:05.054Z,8.3
2023-01-09T08:55:21.298Z,8.3
2023-01-09T08:56:37.562Z,8.3
2023-01-09T08:57:53.782Z,8.3
2023-01-09T08:59:10.023Z,8.3
2023-01-09T09:00:25.312Z,8.4
2023-01-09T09:01:41.546Z,8.4
2023-01-09T09:02:57.757Z,8.4
2023-01-09T09:04:14.022Z,8.4
2023-01-09T09:05:30.256Z,8.4
2023-01-09T09:06:46.496Z,8.4
2023-01-09T09:08:02.711Z,8.3
2023-01-09T09:09:18.976Z,8.3
2023-01-09T09:10:35.197Z,8.3
2023-01-09T09:11:51.434Z,8.3
2023-01-09T09:13:07.673Z,8.3
2023-01-09T09:14:23.942Z,8.3
2023-01-09T09:15:40.159Z,8.3
2023-01-09T09:16:55.421Z,8.3
2023-01-09T09:18:11.657Z,8.3
2023-01-09T09:19:27.925Z,8.2
2023-01-09T09:20:44.136Z,8.2
2023-01-09T09:22:00.402Z,8.2
2023-01-09T09:23:16.624Z,8.3
2023-01-09T09:24:32.866Z,8.3
2023-01-09T09:25:49.097Z,8.3
2023-01-09T09:27:05.349Z,8.4
2023-01-09T09:28:21.585Z,8.4
2023-01-09T09:29:37.852Z,8.4
2023-01-09T09:30:54.055Z,8.4
2023-01-09T09:32:10.319Z,8.4
2023-01-09T09:33:25.561Z,8.4
2023-01-09T09:34:41.811Z,8.4
2023-01-09T09:35:58.028Z,8.4
2023-01-09T09:37:14.299Z,8.4
2023-01-09T09:38:30.521Z,8.5
2023-01-09T09:39:46.778Z,8.4
2023-01-09T09:41:03.002Z,8.4
2023-01-09T09:42:19.253Z,8.6
2023-01-09T09:43:35.476Z,8.8
2023-01-09T09:44:51.715Z,9
2023-01-09T09:46:07.950Z,9.2
2023-01-09T09:47:24.202Z,9.4
2023-01-09T09:48:40.450Z,10.1
2023-01-09T09:49:55.704Z,9.9
2023-01-09T09:51:11.936Z,9.8
2023-01-09T09:52:28.193Z,9.7
2023-01-09T09:53:44.418Z,9.6
2023-01-09T09:55:00.670Z,10
2023-01-09T09:56:16.910Z,10.7
2023-01-09T09:57:33.162Z,11.9
2023-01-09T09:58:49.403Z,12.9
2023-01-09T10:00:05.619Z,13.9
2023-01-09T10:01:21.857Z,14.7
2023-01-09T10:02:38.121Z,16
2023-01-09T10:03:54.342Z,16.9
2023-01-09T10:05:10.584Z,17.7
2023-01-09T10:06:25.857Z,18.3
2023-01-09T10:07:42.073Z,18.3
2023-01-09T10:08:58.338Z,18.6
2023-01-09T10:10:14.552Z,19
2023-01-09T10:11:30.788Z,18.7
2023-01-09T10:12:47.031Z,17.8
2023-01-09T10:14:03.274Z,17.9
2023-01-09T10:15:19.512Z,16.7
2023-01-09T10:16:35.752Z,16.7
2023-01-09T10:17:51.990Z,16.2
2023-01-09T10:19:08.258Z,16.5
2023-01-09T10:20:24.474Z,17.1
2023-01-09T10:21:40.715Z,17.4
2023-01-09T10:22:55.982Z,18.1
2023-01-09T10:24:12.230Z,18.4
2023-01-09T10:25:28.443Z,18
2023-01-09T10:26:44.711Z,17
2023-01-09T10:28:00.925Z,16.7
2023-01-09T10:29:17.167Z,17.7
2023-01-09T10:30:33.413Z,17.9
2023-01-09T10:31:49.653Z,17.8
2023-01-09T10:33:05.897Z,17.1
2023-01-09T10:34:22.128Z,16.3
2023-01-09T10:35:38.395Z,15.7
2023-01-09T10:36:54.609Z,14.9
2023-01-09T10:38:10.881Z,15
2023-01-09T10:39:26.109Z,14.9
2023-01-09T10:40:42.353Z,14.2
2023-01-09T10:41:58.610Z,13.9
2023-01-09T10:43:14.833Z,13.7
2023-01-09T10:44:31.064Z,13.5
2023-01-09T10:45:47.327Z,13.4
2023-01-09T10:47:03.545Z,13.6
2023-01-09T10:48:19.781Z,13.8
2023-01-09T10:49:36.060Z,14.2
2023-01-09T10:50:52.255Z,14
2023-01-09T10:52:08.510Z,13.8
2023-01-09T10:53:24.736Z,13.3
2023-01-09T10:54:40.977Z,13.9
2023-01-09T10:55:56.264Z,14.4
2023-01-09T10:57:12.486Z,15.3
2023-01-09T10:58:28.723Z,15.8
2023-01-09T10:59:44.978Z,15.8
2023-01-09T11:01:01.196Z,16.1
2023-01-09T11:02:17.442Z,16.3
2023-01-09T11:03:33.671Z,15.8
2023-01-09T11:04:49.938Z,16.1
2023-01-09T11:06:06.182Z,16.6
2023-01-09T11:07:22.418Z,17.6
2023-01-09T11:08:38.634Z,17.6
2023-01-09T11:09:54.905Z,17
2023-01-09T11:11:11.107Z,17.2
2023-01-09T11:12:26.376Z,17.4
2023-01-09T11:13:42.622Z,17.5
2023-01-09T11:14:58.847Z,17.6
2023-01-09T11:16:15.124Z,17.4
2023-01-09T11:17:31.331Z,17.6
2023-01-09T11:18:47.591Z,17.6
2023-01-09T11:20:03.821Z,18.2
2023-01-09T11:21:20.044Z,18.1
2023-01-09T11:22:36.313Z,18.4
2023-01-09T11:23:52.554Z,18.1
2023-01-09T11:25:08.767Z,17.8
2023-01-09T11:26:25.013Z,17.7
2023-01-09T11:27:41.253Z,17.8
2023-01-09T11:28:56.531Z,17.1
2023-01-09T11:30:12.768Z,17.5
2023-01-09T11:31:28.990Z,18.2
2023-01-09T11:32:45.255Z,18.2
2023-01-09T11:34:01.466Z,17.9
2023-01-09T11:35:17.713Z,18.2
2023-01-09T11:36:33.945Z,17.7
2023-01-09T11:37:50.184Z,17.3
2023-01-09T11:39:06.435Z,16.5
2023-01-09T11:40:22.670Z,16.2
2023-01-09T11:41:38.909Z,15.4
2023-01-09T11:42:55.143Z,14.7
2023-01-09T11:44:11.383Z,14
2023-01-09T11:45:26.654Z,13.1
2023-01-09T11:46:42.918Z,12.4
2023-01-09T11:47:59.153Z,12.4
2023-01-09T11:49:15.360Z,12.8
2023-01-09T11:50:31.612Z,12.4
2023-01-09T11:51:47.879Z,12
2023-01-09T11:53:03.125Z,11.9
2023-01-09T11:54:19.361Z,12.6
2023-01-09T11:55:35.591Z,14.1
2023-01-09T11:56:51.857Z,15
2023-01-09T11:58:08.076Z,15.5
2023-01-09T11:59:24.311Z,15.3
2023-01-09T12:00:40.578Z,15.8
2023-01-09T12:01:56.824Z,16.4
2023-01-09T12:03:13.058Z,17
2023-01-09T12:04:29.304Z,17.9
2023-01-09T12:05:45.523Z,18.5
2023-01-09T12:07:01.779Z,18.4
2023-01-09T12:08:17.989Z,18.7
2023-01-09T12:09:33.257Z,18.9
2023-01-09T12:10:49.501Z,18.9
2023-01-09T12:12:05.765Z,18.6
2023-01-09T12:13:21.970Z,18
2023-01-09T12:14:38.243Z,17.8
2023-01-09T12:15:54.447Z,17
2023-01-09T12:17:10.696Z,15.5
2023-01-09T12:18:26.927Z,14.6
2023-01-09T12:19:43.180Z,14.3
2023-01-09T12:20:59.417Z,13.4
2023-01-09T12:22:15.650Z,13
2023-01-09T12:23:31.894Z,12.7
2023-01-09T12:24:48.133Z,12.5
2023-01-09T12:26:03.406Z,12.4
2023-01-09T12:27:19.636Z,12.2
2023-01-09T12:28:35.878Z,12
2023-01-09T12:29:52.000Z,12
2023-01-09T12:31:08.381Z,11.9
2023-01-09T12:32:24.587Z,11.8
2023-01-09T12:33:40.834Z,11.8
2023-01-09T12:34:57.063Z,11.8
2023-01-09T12:36:13.300Z,11.8
2023-01-09T12:37:29.547Z,11.7
2023-01-09T12:38:45.786Z,11.8
2023-01-09T12:40:02.049Z,11.8
2023-01-09T12:41:18.270Z,11.8
2023-01-09T12:42:33.517Z,11.9
2023-01-09T12:43:49.755Z,11.9
2023-01-09T12:45:05.997Z,11.9
2023-01-09T12:46:22.263Z,11.9
2023-01-09T12:47:38.486Z,11.8
2023-01-09T12:48:54.723Z,11.7
2023-01-09T12:50:10.978Z,11.5
2023-01-09T12:51:27.231Z,11.4
2023-01-09T12:52:43.466Z,11.3
2023-01-09T12:53:59.676Z,11.2
2023-01-09T12:55:15.939Z,11
2023-01-09T12:56:32.163Z,10.9
2023-01-09T12:57:48.392Z,10.8
2023-01-09T12:59:03.644Z,10.8
2023-01-09T13:00:19.898Z,10.8
2023-01-09T13:01:36.132Z,10.5
2023-01-09T13:02:52.367Z,10.4
2023-01-09T13:04:08.612Z,10.4
2023-01-09T13:05:24.850Z,10.3
2023-01-09T13:06:41.092Z,10.2
2023-01-09T13:07:57.330Z,10.1
2023-01-09T13:09:13.574Z,10.1
2023-01-09T13:10:29.817Z,9.9
2023-01-09T13:11:46.061Z,9.8
2023-01-09T13:13:02.282Z,9.7
2023-01-09T13:14:18.533Z,9.6
2023-01-09T13:15:33.790Z,9.7
2023-01-09T13:16:50.035Z,9.6
2023-01-09T13:18:06.270Z,9.6
2023-01-09T13:19:22.512Z,9.6
2023-01-09T13:20:38.739Z,9.5
2023-01-09T13:21:54.991Z,9.6
2023-01-09T13:23:11.237Z,9.6
2023-01-09T13:24:27.462Z,9.7
2023-01-09T13:25:43.717Z,9.8
2023-01-09T13:26:59.944Z,9.9
2023-01-09T13:28:16.178Z,9.9
2023-01-09T13:29:32.436Z,9.9
2023-01-09T13:30:48.669Z,9.9
2023-01-09T13:32:03.916Z,9.9
2023-01-09T13:33:20.166Z,9.9
2023-01-09T13:34:36.409Z,9.9
2023-01-09T13:35:52.645Z,9.9
2023-01-09T13:37:08.884Z,9.9
2023-01-09T13:38:25.120Z,9.9
2023-01-09T13:39:41.359Z,10
2023-01-09T13:40:57.595Z,10
2023-01-09T13:42:13.836Z,10
2023-01-09T13:43:30.079Z,10
2023-01-09T13:44:46.328Z,10
2023-01-09T13:46:02.554Z,9.9
2023-01-09T13:47:18.809Z,9.8
2023-01-09T13:48:34.059Z,9.8
2023-01-09T13:49:50.305Z,9.7
2023-01-09T13:51:06.545Z,9.7
2023-01-09T13:52:22.788Z,9.6
2023-01-09T13:53:39.024Z,9.6
2023-01-09T13:54:55.257Z,9.4
2023-01-09T13:56:11.494Z,9.3
2023-01-09T13:57:27.734Z,9.3
2023-01-09T13:58:43.988Z,9.3
2023-01-09T14:00:00.207Z,9.2
2023-01-09T14:01:16.461Z,9.2
2023-01-09T14:02:32.702Z,9.2
2023-01-09T14:03:48.928Z,9.2
2023-01-09T14:05:04.198Z,9.2
2023-01-09T14:06:20.427Z,9.2
2023-01-09T14:07:36.666Z,9.2
2023-01-09T14:08:52.918Z,9.2
2023-01-09T14:10:09.150Z,9.3
2023-01-09T14:11:25.396Z,9.3
2023-01-09T14:12:41.630Z,9.3
2023-01-09T14:13:57.876Z,9.3
2023-01-09T14:15:14.126Z,9.4
2023-01-09T14:16:30.355Z,9.4
2023-01-09T14:17:46.602Z,9.5
2023-01-09T14:19:02.841Z,9.4
2023-01-09T14:20:19.082Z,9.5
2023-01-09T14:21:34.338Z,9.4
2023-01-09T14:22:50.559Z,9.4
2023-01-09T14:24:06.814Z,9.3
2023-01-09T14:25:23.045Z,9.3
2023-01-09T14:26:39.286Z,9.3
2023-01-09T14:27:55.538Z,9.2
2023-01-09T14:29:11.768Z,9
2023-01-09T14:30:28.005Z,8.9
2023-01-09T14:31:44.260Z,8.9
2023-01-09T14:33:00.498Z,8.9
2023-01-09T14:34:16.721Z,8.9
2023-01-09T14:35:32.973Z,8.8
2023-01-09T14:36:49.208Z,8.8
2023-01-09T14:38:04.476Z,8.8
2023-01-09T14:39:20.704Z,8.8
2023-01-09T14:40:36.943Z,8.7
2023-01-09T14:41:53.194Z,8.7
2023-01-09T14:43:09.428Z,8.6
2023-01-09T14:44:25.662Z,8.7
2023-01-09T14:45:41.898Z,8.7
2023-01-09T14:46:58.137Z,8.6
2023-01-09T14:48:14.387Z,8.6
2023-01-09T14:49:30.632Z,8.5
2023-01-09T14:50:46.873Z,8.5
2023-01-09T14:52:03.096Z,8.5
2023-01-09T14:53:19.349Z,8.5
2023-01-09T14:54:34.611Z,8.4
2023-01-09T14:55:50.840Z,8.4
2023-01-09T14:57:07.092Z,8.3
2023-01-09T14:58:23.322Z,8.3
2023-01-09T14:59:39.553Z,8.3
2023-01-09T15:00:55.803Z,8.2
2023-01-09T15:02:12.056Z,8.2
2023-01-09T15:03:28.284Z,8.2
2023-01-09T15:04:44.524Z,8.2
2023-01-09T15:06:00.758Z,8.1
2023-01-09T15:07:16.995Z,8.1
2023-01-09T15:08:33.239Z,8.1
2023-01-09T15:09:49.479Z,8.1
2023-01-09T15:11:04.738Z,8
2023-01-09T15:12:20.992Z,8
2023-01-09T15:13:37.220Z,8
2023-01-09T15:14:53.461Z,8
2023-01-09T15:16:09.708Z,7.9
2023-01-09T15:17:25.948Z,7.9
2023-01-09T15:18:42.184Z,7.9
2023-01-09T15:19:58.415Z,7.9
2023-01-09T15:21:14.652Z,7.9
2023-01-09T15:22:30.897Z,7.9
2023-01-09T15:23:47.137Z,7.8
2023-01-09T15:25:03.377Z,7.8
2023-01-09T15:26:19.615Z,7.8
2023-01-09T15:27:34.891Z,7.7
2023-01-09T15:28:51.128Z,7.7
2023-01-09T15:30:07.349Z,7.7
2023-01-09T15:31:23.593Z,7.7
2023-01-09T15:32:39.833Z,7.7
2023-01-09T15:33:56.084Z,7.6
2023-01-09T15:35:12.311Z,7.6
2023-01-09T15:36:28.556Z,7.6
2023-01-09T15:37:44.793Z,7.5
2023-01-09T15:39:01.037Z,7.6
2023-01-09T15:40:17.286Z,7.5
2023-01-09T15:41:33.515Z,7.5
2023-01-09T15:42:49.749Z,7.5
2023-01-09T15:44:05.016Z,7.5
2023-01-09T15:45:21.254Z,7.4
2023-01-09T15:46:37.498Z,7.4
2023-01-09T15:47:53.731Z,7.5
2023-01-09T15:49:09.968Z,7.4
2023-01-09T15:50:26.218Z,7.4
2023-01-09T15:51:42.460Z,7.4
2023-01-09T15:52:58.690Z,7.3
2023-01-09T15:54:14.937Z,7.3
2023-01-09T15:55:31.169Z,7.3
2023-01-09T15:56:47.413Z,7.3
2023-01-09T15:58:03.648Z,7.3
2023-01-09T15:59:19.906Z,7.3
2023-01-09T16:00:35.197Z,7.2
2023-01-09T16:01:51.501Z,7.2
2023-01-09T16:03:07.797Z,7.2
2023-01-09T16:04:24.103Z,7.2
2023-01-09T16:05:40.384Z,7.2
2023-01-09T16:06:56.672Z,7.2
2023-01-09T16:08:11.994Z,7.1
2023-01-09T16:09:28.278Z,7.1
2023-01-09T16:10:44.592Z,7.2
2023-01-09T16:12:00.888Z,7.2
2023-01-09T16:13:17.166Z,7.2
2023-01-09T16:14:33.462Z,7.2
2023-01-09T16:15:49.767Z,7.2
2023-01-09T16:17:06.044Z,7.3
2023-01-09T16:18:22.348Z,7.3
2023-01-09T16:19:38.644Z,7.3
2023-01-09T16:20:54.940Z,7.3
2023-01-09T16:22:11.230Z,7.4
2023-01-09T16:23:27.524Z,7.4
2023-01-09T16:24:42.843Z,7.4
2023-01-09T16:25:59.126Z,7.5
2023-01-09T16:27:15.428Z,7.5
2023-01-09T16:28:31.724Z,7.5
2023-01-09T16:29:48.019Z,7.5
2023-01-09T16:31:04.319Z,7.5
2023-01-09T16:32:20.609Z,7.6
2023-01-09T16:33:36.901Z,7.5
2023-01-09T16:34:53.180Z,7.6
2023-01-09T16:36:09.481Z,7.6
2023-01-09T16:37:25.782Z,7.6
2023-01-09T16:38:42.060Z,7.6
2023-01-09T16:39:58.360Z,7.6
2023-01-09T16:41:13.680Z,7.6
2023-01-09T16:42:29.966Z,7.6
2023-01-09T16:43:46.263Z,7.6
2023-01-09T16:45:02.565Z,7.6
2023-01-09T16:46:18.852Z,7.5
2023-01-09T16:47:35.155Z,7.5
2023-01-09T16:48:51.438Z,7.5
2023-01-09T16:50:07.727Z,7.5
2023-01-09T16:51:24.030Z,7.5
2023-01-09T16:52:40.331Z,7.5
2023-01-09T16:53:56.624Z,7.5
2023-01-09T16:55:12.906Z,7.5
2023-01-09T16:56:29.203Z,7.5
2023-01-09T16:57:44.520Z,7.5
2023-01-09T16:59:00.801Z,7.6
2023-01-09T17:00:17.098Z,7.5
2023-01-09T17:01:33.411Z,7.6
2023-01-09T17:02:49.690Z,7.5
2023-01-09T17:04:05.988Z,7.6
2023-01-09T17:05:22.269Z,7.6
2023-01-09T17:06:38.577Z,7.5
2023-01-09T17:07:54.872Z,7.5
2023-01-09T17:09:11.178Z,7.5
2023-01-09T17:10:27.455Z,7.5
2023-01-09T17:11:43.759Z,7.5
2023-01-09T17:13:00.045Z,7.5
2023-01-09T17:14:15.372Z,7.6
2023-01-09T17:15:31.647Z,7.6
2023-01-09T17:16:47.945Z,7.5
2023-01-09T17:18:04.245Z,7.6
2023-01-09T17:19:20.532Z,7.6
2023-01-09T17:20:36.826Z,7.5
2023-01-09T17:21:53.129Z,7.6
2023-01-09T17:23:09.425Z,7.5
2023-01-09T17:24:25.699Z,7.6
2023-01-09T17:25:41.993Z,7.6
2023-01-09T17:26:58.295Z,7.6
2023-01-09T17:28:14.585Z,7.6